SWA4037 KCMH-KSTL
Flight info
| Callsign | SWA4037 |
|---|---|
| Flight time | 1h 9m |
| Altitude | 32000 |
| Route | PKACZ TARRY DQN VHP AARCH2 |
| Aircraft | B738/M-SDE2E3FGHIRWXY/LB1 |
Departure
| Time | 2026-04-28 23:23 |
|---|---|
| Airport | John Glenn Columbus International Airport (KCMH) |
Arrival
| Time | 2026-04-29 00:33 |
|---|---|
| Airport | St. Louis Lambert International Airport (KSTL) |
| Time | Latitude | Longitude | Altitude | Speed | Heading |
|---|---|---|---|---|---|
| 2026-04-28 23:12 | 39.99623 | -82.88621 | 822 ft | 2 kts | 6° |
| 2026-04-28 23:12 | 39.99607 | -82.88624 | 821 ft | 2 kts | 26° |
| 2026-04-28 23:12 | 39.99596 | -82.88636 | 824 ft | 1 kts | 60° |
| 2026-04-28 23:13 | 39.99595 | -82.88639 | 824 ft | 0 kts | 61° |
| 2026-04-28 23:18 | 39.99596 | -82.88609 | 822 ft | 7 kts | 90° |
| 2026-04-28 23:18 | 39.99592 | -82.88522 | 824 ft | 13 kts | 94° |
| 2026-04-28 23:19 | 39.99584 | -82.88380 | 824 ft | 17 kts | 94° |
| 2026-04-28 23:19 | 39.99498 | -82.88323 | 824 ft | 16 kts | 187° |
| 2026-04-28 23:19 | 39.99398 | -82.88292 | 824 ft | 16 kts | 116° |
| 2026-04-28 23:19 | 39.99385 | -82.88155 | 824 ft | 15 kts | 94° |
| 2026-04-28 23:20 | 39.99378 | -82.88022 | 824 ft | 14 kts | 94° |
| 2026-04-28 23:20 | 39.99372 | -82.87895 | 824 ft | 14 kts | 94° |
| 2026-04-28 23:20 | 39.99366 | -82.87773 | 824 ft | 13 kts | 95° |
| 2026-04-28 23:20 | 39.99357 | -82.87657 | 824 ft | 13 kts | 95° |
| 2026-04-28 23:21 | 39.99352 | -82.87543 | 824 ft | 12 kts | 93° |
| 2026-04-28 23:21 | 39.99347 | -82.87432 | 824 ft | 12 kts | 93° |
| 2026-04-28 23:21 | 39.99334 | -82.87330 | 821 ft | 5 kts | 130° |
| 2026-04-28 23:21 | 39.99298 | -82.87319 | 824 ft | 5 kts | 178° |
| 2026-04-28 23:22 | 39.99261 | -82.87319 | 824 ft | 5 kts | 184° |
| 2026-04-28 23:22 | 39.99221 | -82.87323 | 823 ft | 7 kts | 186° |
| 2026-04-28 23:22 | 39.99168 | -82.87363 | 823 ft | 12 kts | 247° |
| 2026-04-28 23:22 | 39.99171 | -82.87505 | 823 ft | 26 kts | 275° |
| 2026-04-28 23:23 | 39.99202 | -82.88028 | 824 ft | 96 kts | 274° |
| 2026-04-28 23:23 | 39.99267 | -82.89213 | 839 ft | 163 kts | 274° |
| 2026-04-28 23:23 | 39.99347 | -82.90800 | 1383 ft | 189 kts | 272° |
| 2026-04-28 23:23 | 39.99418 | -82.92576 | 2129 ft | 202 kts | 272° |
| 2026-04-28 23:24 | 39.99488 | -82.94458 | 2852 ft | 213 kts | 272° |
| 2026-04-28 23:24 | 39.99558 | -82.96417 | 3434 ft | 222 kts | 272° |
| 2026-04-28 23:24 | 39.99617 | -82.98476 | 3943 ft | 231 kts | 271° |
| 2026-04-28 23:24 | 39.99677 | -83.00596 | 4517 ft | 240 kts | 271° |
| 2026-04-28 23:25 | 39.99741 | -83.02841 | 5021 ft | 253 kts | 271° |
| 2026-04-28 23:25 | 39.99808 | -83.05142 | 5921 ft | 252 kts | 272° |
| 2026-04-28 23:25 | 39.99876 | -83.07412 | 6881 ft | 252 kts | 271° |
| 2026-04-28 23:25 | 39.99945 | -83.09726 | 7623 ft | 258 kts | 272° |
| 2026-04-28 23:26 | 40.00016 | -83.12080 | 8399 ft | 262 kts | 272° |
| 2026-04-28 23:26 | 40.00088 | -83.14481 | 9144 ft | 268 kts | 272° |
| 2026-04-28 23:26 | 40.00162 | -83.16928 | 9942 ft | 272 kts | 272° |
| 2026-04-28 23:26 | 40.00237 | -83.19431 | 10472 ft | 285 kts | 272° |
| 2026-04-28 23:27 | 40.00318 | -83.22132 | 10650 ft | 310 kts | 272° |
| 2026-04-28 23:27 | 40.00404 | -83.25043 | 10867 ft | 331 kts | 272° |
| 2026-04-28 23:27 | 40.00494 | -83.28087 | 11382 ft | 340 kts | 272° |
| 2026-04-28 23:27 | 40.00585 | -83.31188 | 12065 ft | 344 kts | 272° |
| 2026-04-28 23:28 | 40.00676 | -83.34311 | 12818 ft | 346 kts | 272° |
| 2026-04-28 23:28 | 40.00766 | -83.37457 | 13540 ft | 349 kts | 272° |
| 2026-04-28 23:28 | 40.00857 | -83.40630 | 14230 ft | 351 kts | 272° |
| 2026-04-28 23:28 | 40.00947 | -83.43816 | 14915 ft | 353 kts | 272° |
| 2026-04-28 23:29 | 40.01036 | -83.47024 | 15603 ft | 355 kts | 272° |
| 2026-04-28 23:29 | 40.01126 | -83.50245 | 16294 ft | 356 kts | 272° |
| 2026-04-28 23:29 | 40.01215 | -83.53484 | 16962 ft | 358 kts | 272° |
| 2026-04-28 23:29 | 40.01303 | -83.56740 | 17622 ft | 361 kts | 273° |
| 2026-04-28 23:30 | 40.01512 | -83.60005 | 18273 ft | 363 kts | 279° |
| 2026-04-28 23:30 | 40.01913 | -83.63260 | 18858 ft | 364 kts | 279° |
| 2026-04-28 23:30 | 40.02336 | -83.66522 | 19469 ft | 365 kts | 279° |
| 2026-04-28 23:30 | 40.02759 | -83.69789 | 20070 ft | 366 kts | 279° |
| 2026-04-28 23:31 | 40.03176 | -83.73068 | 20643 ft | 367 kts | 279° |
| 2026-04-28 23:31 | 40.03588 | -83.76364 | 21203 ft | 369 kts | 279° |
| 2026-04-28 23:31 | 40.03998 | -83.79674 | 21760 ft | 370 kts | 278° |
| 2026-04-28 23:31 | 40.04407 | -83.82993 | 22291 ft | 371 kts | 278° |
| 2026-04-28 23:32 | 40.04817 | -83.86331 | 22822 ft | 373 kts | 278° |
| 2026-04-28 23:32 | 40.05207 | -83.89685 | 23343 ft | 375 kts | 276° |
| 2026-04-28 23:32 | 40.05332 | -83.93040 | 23792 ft | 376 kts | 269° |
| 2026-04-28 23:32 | 40.05104 | -83.96442 | 24267 ft | 376 kts | 265° |
| 2026-04-28 23:33 | 40.04825 | -83.99831 | 24782 ft | 375 kts | 265° |
| 2026-04-28 23:33 | 40.04548 | -84.03215 | 25257 ft | 375 kts | 265° |
| 2026-04-28 23:33 | 40.04274 | -84.06594 | 25718 ft | 375 kts | 265° |
| 2026-04-28 23:33 | 40.04005 | -84.09978 | 26159 ft | 375 kts | 265° |
| 2026-04-28 23:34 | 40.03738 | -84.13360 | 26596 ft | 375 kts | 265° |
| 2026-04-28 23:34 | 40.03471 | -84.16746 | 27019 ft | 375 kts | 265° |
| 2026-04-28 23:34 | 40.03204 | -84.20132 | 27428 ft | 375 kts | 265° |
| 2026-04-28 23:34 | 40.02936 | -84.23522 | 27820 ft | 376 kts | 265° |
| 2026-04-28 23:35 | 40.02667 | -84.26914 | 28202 ft | 376 kts | 265° |
| 2026-04-28 23:35 | 40.02397 | -84.30300 | 28680 ft | 374 kts | 265° |
| 2026-04-28 23:35 | 40.02130 | -84.33645 | 29360 ft | 367 kts | 265° |
| 2026-04-28 23:35 | 40.01867 | -84.36923 | 30063 ft | 360 kts | 265° |
| 2026-04-28 23:36 | 40.01605 | -84.40154 | 30563 ft | 356 kts | 265° |
| 2026-04-28 23:36 | 40.01321 | -84.43353 | 30975 ft | 354 kts | 264° |
| 2026-04-28 23:36 | 40.01020 | -84.46541 | 31249 ft | 355 kts | 264° |
| 2026-04-28 23:36 | 40.00712 | -84.49750 | 31412 ft | 359 kts | 264° |
| 2026-04-28 23:37 | 40.00400 | -84.52990 | 31611 ft | 361 kts | 264° |
| 2026-04-28 23:37 | 40.00088 | -84.56236 | 31913 ft | 360 kts | 264° |
| 2026-04-28 23:37 | 39.99464 | -84.62719 | 31985 ft | 360 kts | 264° |
| 2026-04-28 23:38 | 39.98842 | -84.69188 | 31992 ft | 359 kts | 264° |
| 2026-04-28 23:38 | 39.98219 | -84.75637 | 32007 ft | 358 kts | 264° |
| 2026-04-28 23:39 | 39.97594 | -84.82074 | 32008 ft | 358 kts | 263° |
| 2026-04-28 23:39 | 39.96966 | -84.88506 | 32009 ft | 358 kts | 263° |
| 2026-04-28 23:40 | 39.96334 | -84.94939 | 32006 ft | 358 kts | 263° |
| 2026-04-28 23:40 | 39.95698 | -85.01373 | 32002 ft | 358 kts | 263° |
| 2026-04-28 23:41 | 39.95063 | -85.07766 | 31999 ft | 358 kts | 263° |
| 2026-04-28 23:41 | 39.94419 | -85.14213 | 31999 ft | 359 kts | 263° |
| 2026-04-28 23:42 | 39.93771 | -85.20663 | 31994 ft | 359 kts | 263° |
| 2026-04-28 23:42 | 39.93118 | -85.27118 | 32001 ft | 359 kts | 263° |
| 2026-04-28 23:43 | 39.92461 | -85.33579 | 32000 ft | 360 kts | 263° |
| 2026-04-28 23:43 | 39.91801 | -85.40043 | 32001 ft | 360 kts | 263° |
| 2026-04-28 23:44 | 39.91244 | -85.45459 | 32008 ft | 360 kts | 263° |
| 2026-04-28 23:44 | 39.90577 | -85.51918 | 32005 ft | 360 kts | 262° |
| 2026-04-28 23:45 | 39.89911 | -85.58330 | 32005 ft | 360 kts | 262° |
| 2026-04-28 23:45 | 39.89237 | -85.64784 | 32008 ft | 360 kts | 262° |
| 2026-04-28 23:46 | 39.88560 | -85.71232 | 32014 ft | 359 kts | 262° |
| 2026-04-28 23:46 | 39.87880 | -85.77673 | 32017 ft | 359 kts | 262° |
| 2026-04-28 23:47 | 39.87197 | -85.84111 | 32016 ft | 359 kts | 262° |
| 2026-04-28 23:47 | 39.86510 | -85.90541 | 32020 ft | 359 kts | 262° |
| 2026-04-28 23:48 | 39.85821 | -85.96962 | 32023 ft | 358 kts | 262° |
| 2026-04-28 23:48 | 39.85129 | -86.03386 | 32037 ft | 358 kts | 262° |
| 2026-04-28 23:49 | 39.84433 | -86.09800 | 32037 ft | 358 kts | 262° |
| 2026-04-28 23:49 | 39.83734 | -86.16213 | 32017 ft | 358 kts | 262° |
| 2026-04-28 23:50 | 39.83032 | -86.22625 | 32018 ft | 358 kts | 262° |
| 2026-04-28 23:50 | 39.82332 | -86.28994 | 32020 ft | 358 kts | 262° |
| 2026-04-28 23:51 | 39.81614 | -86.35404 | 32017 ft | 358 kts | 260° |
| 2026-04-28 23:51 | 39.80312 | -86.41662 | 32024 ft | 359 kts | 254° |
| 2026-04-28 23:52 | 39.78783 | -86.47844 | 32016 ft | 359 kts | 254° |
| 2026-04-28 23:52 | 39.77257 | -86.54021 | 32005 ft | 359 kts | 254° |
| 2026-04-28 23:53 | 39.75735 | -86.60197 | 32033 ft | 359 kts | 254° |
| 2026-04-28 23:53 | 39.74214 | -86.66372 | 32039 ft | 359 kts | 254° |
| 2026-04-28 23:54 | 39.72690 | -86.72548 | 32043 ft | 359 kts | 254° |
| 2026-04-28 23:54 | 39.71164 | -86.78717 | 32043 ft | 359 kts | 254° |
| 2026-04-28 23:55 | 39.69636 | -86.84881 | 32045 ft | 358 kts | 253° |
| 2026-04-28 23:55 | 39.68104 | -86.91042 | 32049 ft | 358 kts | 253° |
| 2026-04-28 23:56 | 39.66570 | -86.97196 | 32036 ft | 358 kts | 253° |
| 2026-04-28 23:56 | 39.65034 | -87.03345 | 32031 ft | 358 kts | 253° |
| 2026-04-28 23:57 | 39.63495 | -87.09487 | 32025 ft | 358 kts | 253° |
| 2026-04-28 23:57 | 39.61954 | -87.15620 | 32012 ft | 358 kts | 253° |
| 2026-04-28 23:58 | 39.60421 | -87.21708 | 32013 ft | 357 kts | 253° |
| 2026-04-28 23:58 | 39.58866 | -87.27869 | 32014 ft | 357 kts | 253° |
| 2026-04-28 23:59 | 39.57319 | -87.33982 | 32015 ft | 357 kts | 253° |
| 2026-04-28 23:59 | 39.55780 | -87.40048 | 32015 ft | 357 kts | 253° |
| 2026-04-29 00:00 | 39.54229 | -87.46149 | 32016 ft | 356 kts | 253° |
| 2026-04-29 00:00 | 39.52675 | -87.52243 | 32014 ft | 356 kts | 253° |
| 2026-04-29 00:01 | 39.51116 | -87.58341 | 32021 ft | 357 kts | 253° |
| 2026-04-29 00:01 | 39.49554 | -87.64439 | 32022 ft | 357 kts | 253° |
| 2026-04-29 00:02 | 39.47986 | -87.70541 | 32025 ft | 357 kts | 253° |
| 2026-04-29 00:02 | 39.46414 | -87.76647 | 32025 ft | 358 kts | 252° |
| 2026-04-29 00:03 | 39.44837 | -87.82757 | 32025 ft | 358 kts | 252° |
| 2026-04-29 00:03 | 39.43255 | -87.88869 | 32018 ft | 358 kts | 252° |
| 2026-04-29 00:04 | 39.41669 | -87.94986 | 32019 ft | 359 kts | 252° |
| 2026-04-29 00:04 | 39.40078 | -88.01107 | 32016 ft | 359 kts | 252° |
| 2026-04-29 00:05 | 39.38497 | -88.07232 | 32017 ft | 359 kts | 252° |
| 2026-04-29 00:05 | 39.36977 | -88.13379 | 32014 ft | 359 kts | 252° |
| 2026-04-29 00:06 | 39.35462 | -88.19481 | 32014 ft | 359 kts | 252° |
| 2026-04-29 00:06 | 39.33887 | -88.25599 | 32011 ft | 359 kts | 251° |
| 2026-04-29 00:07 | 39.32257 | -88.31685 | 32018 ft | 358 kts | 251° |
| 2026-04-29 00:07 | 39.30626 | -88.37767 | 32005 ft | 358 kts | 251° |
| 2026-04-29 00:08 | 39.29001 | -88.43838 | 32005 ft | 358 kts | 251° |
| 2026-04-29 00:08 | 39.27375 | -88.49907 | 32011 ft | 358 kts | 251° |
| 2026-04-29 00:09 | 39.25752 | -88.55957 | 31992 ft | 351 kts | 251° |
| 2026-04-29 00:09 | 39.24183 | -88.61790 | 31995 ft | 341 kts | 251° |
| 2026-04-29 00:10 | 39.22626 | -88.67565 | 31710 ft | 342 kts | 251° |
| 2026-04-29 00:10 | 39.21854 | -88.70425 | 31348 ft | 336 kts | 251° |
| 2026-04-29 00:10 | 39.21094 | -88.73236 | 30975 ft | 330 kts | 251° |
| 2026-04-29 00:11 | 39.20341 | -88.76017 | 30541 ft | 327 kts | 251° |
| 2026-04-29 00:11 | 39.19596 | -88.78772 | 30109 ft | 324 kts | 251° |
| 2026-04-29 00:11 | 39.18120 | -88.84211 | 29129 ft | 319 kts | 251° |
| 2026-04-29 00:12 | 39.17391 | -88.86894 | 28675 ft | 316 kts | 251° |
| 2026-04-29 00:12 | 39.16663 | -88.89568 | 27944 ft | 320 kts | 251° |
| 2026-04-29 00:12 | 39.15926 | -88.92272 | 27395 ft | 320 kts | 251° |
| 2026-04-29 00:12 | 39.15189 | -88.94973 | 26941 ft | 318 kts | 251° |
| 2026-04-29 00:13 | 39.14456 | -88.97654 | 26483 ft | 317 kts | 251° |
| 2026-04-29 00:13 | 39.13727 | -89.00322 | 26040 ft | 315 kts | 251° |
| 2026-04-29 00:13 | 39.13002 | -89.02973 | 25609 ft | 313 kts | 251° |
| 2026-04-29 00:13 | 39.12279 | -89.05613 | 25190 ft | 312 kts | 251° |
| 2026-04-29 00:14 | 39.11559 | -89.08244 | 24772 ft | 311 kts | 251° |
| 2026-04-29 00:14 | 39.10841 | -89.10861 | 24357 ft | 310 kts | 251° |
| 2026-04-29 00:14 | 39.10123 | -89.13474 | 23947 ft | 309 kts | 251° |
| 2026-04-29 00:14 | 39.09407 | -89.16081 | 23522 ft | 308 kts | 251° |
| 2026-04-29 00:15 | 39.08757 | -89.18725 | 22862 ft | 312 kts | 253° |
| 2026-04-29 00:15 | 39.08155 | -89.21419 | 22275 ft | 314 kts | 254° |
| 2026-04-29 00:15 | 39.07562 | -89.24127 | 21776 ft | 314 kts | 254° |
| 2026-04-29 00:15 | 39.06970 | -89.26822 | 21335 ft | 312 kts | 254° |
| 2026-04-29 00:16 | 39.06377 | -89.29503 | 20913 ft | 311 kts | 254° |
| 2026-04-29 00:16 | 39.05785 | -89.32165 | 20507 ft | 309 kts | 254° |
| 2026-04-29 00:16 | 39.05193 | -89.34809 | 20115 ft | 307 kts | 254° |
| 2026-04-29 00:16 | 39.04601 | -89.37443 | 19714 ft | 306 kts | 254° |
| 2026-04-29 00:17 | 39.04011 | -89.40063 | 19319 ft | 305 kts | 254° |
| 2026-04-29 00:17 | 39.03430 | -89.42641 | 18937 ft | 304 kts | 254° |
| 2026-04-29 00:17 | 39.02834 | -89.45279 | 18547 ft | 303 kts | 254° |
| 2026-04-29 00:17 | 39.02246 | -89.47876 | 18141 ft | 302 kts | 254° |
| 2026-04-29 00:18 | 39.01668 | -89.50433 | 17713 ft | 301 kts | 254° |
| 2026-04-29 00:18 | 39.01083 | -89.53014 | 17313 ft | 300 kts | 254° |
| 2026-04-29 00:18 | 39.00499 | -89.55585 | 16920 ft | 299 kts | 254° |
| 2026-04-29 00:18 | 38.99918 | -89.58140 | 16527 ft | 298 kts | 254° |
| 2026-04-29 00:19 | 38.99272 | -89.60666 | 16010 ft | 300 kts | 250° |
| 2026-04-29 00:19 | 38.98488 | -89.63172 | 15545 ft | 302 kts | 249° |
| 2026-04-29 00:19 | 38.97682 | -89.65670 | 15121 ft | 302 kts | 249° |
| 2026-04-29 00:19 | 38.96883 | -89.68163 | 14724 ft | 302 kts | 249° |
| 2026-04-29 00:20 | 38.96091 | -89.70657 | 14339 ft | 301 kts | 249° |
| 2026-04-29 00:20 | 38.95302 | -89.73155 | 13909 ft | 302 kts | 249° |
| 2026-04-29 00:20 | 38.94514 | -89.75653 | 13491 ft | 302 kts | 249° |
| 2026-04-29 00:20 | 38.93727 | -89.78148 | 13072 ft | 301 kts | 249° |
| 2026-04-29 00:21 | 38.92942 | -89.80638 | 12687 ft | 300 kts | 249° |
| 2026-04-29 00:21 | 38.92161 | -89.83110 | 12319 ft | 298 kts | 249° |
| 2026-04-29 00:21 | 38.91382 | -89.85575 | 11928 ft | 298 kts | 249° |
| 2026-04-29 00:21 | 38.90602 | -89.88043 | 11543 ft | 298 kts | 249° |
| 2026-04-29 00:22 | 38.89823 | -89.90504 | 11161 ft | 298 kts | 249° |
| 2026-04-29 00:22 | 38.89044 | -89.92965 | 10784 ft | 297 kts | 249° |
| 2026-04-29 00:22 | 38.88267 | -89.95418 | 10517 ft | 294 kts | 249° |
| 2026-04-29 00:22 | 38.87507 | -89.97809 | 10386 ft | 286 kts | 249° |
| 2026-04-29 00:23 | 38.86766 | -90.00138 | 10258 ft | 278 kts | 249° |
| 2026-04-29 00:23 | 38.86043 | -90.02407 | 10137 ft | 271 kts | 249° |
| 2026-04-29 00:23 | 38.85334 | -90.04619 | 10021 ft | 265 kts | 249° |
| 2026-04-29 00:23 | 38.84641 | -90.06779 | 9884 ft | 259 kts | 249° |
| 2026-04-29 00:24 | 38.83963 | -90.08890 | 9571 ft | 259 kts | 248° |
| 2026-04-29 00:24 | 38.83277 | -90.11030 | 9277 ft | 260 kts | 248° |
| 2026-04-29 00:24 | 38.82586 | -90.13184 | 8961 ft | 262 kts | 248° |
| 2026-04-29 00:24 | 38.81891 | -90.15346 | 8647 ft | 262 kts | 248° |
| 2026-04-29 00:25 | 38.81194 | -90.17510 | 8367 ft | 263 kts | 248° |
| 2026-04-29 00:25 | 38.80504 | -90.19680 | 8122 ft | 262 kts | 251° |
| 2026-04-29 00:25 | 38.80280 | -90.21954 | 7972 ft | 258 kts | 272° |
| 2026-04-29 00:25 | 38.80700 | -90.24191 | 7711 ft | 262 kts | 291° |
| 2026-04-29 00:26 | 38.81587 | -90.26235 | 7491 ft | 263 kts | 296° |
| 2026-04-29 00:26 | 38.82522 | -90.28243 | 7243 ft | 261 kts | 296° |
| 2026-04-29 00:26 | 38.83443 | -90.30221 | 6969 ft | 256 kts | 296° |
| 2026-04-29 00:26 | 38.84346 | -90.32170 | 6626 ft | 253 kts | 296° |
| 2026-04-29 00:27 | 38.85233 | -90.34102 | 6276 ft | 250 kts | 296° |
| 2026-04-29 00:27 | 38.86106 | -90.36011 | 5916 ft | 247 kts | 296° |
| 2026-04-29 00:27 | 38.86971 | -90.37902 | 5577 ft | 244 kts | 296° |
| 2026-04-29 00:27 | 38.87825 | -90.39771 | 5238 ft | 242 kts | 296° |
| 2026-04-29 00:28 | 38.88656 | -90.41604 | 4920 ft | 239 kts | 294° |
| 2026-04-29 00:28 | 38.89220 | -90.43561 | 4609 ft | 230 kts | 275° |
| 2026-04-29 00:28 | 38.89191 | -90.45559 | 4347 ft | 221 kts | 255° |
| 2026-04-29 00:28 | 38.88643 | -90.47362 | 4080 ft | 215 kts | 238° |
| 2026-04-29 00:29 | 38.87727 | -90.48839 | 3846 ft | 208 kts | 221° |
| 2026-04-29 00:29 | 38.86560 | -90.49854 | 3601 ft | 199 kts | 205° |
| 2026-04-29 00:29 | 38.85257 | -90.50368 | 3368 ft | 193 kts | 188° |
| 2026-04-29 00:29 | 38.83938 | -90.50387 | 3183 ft | 187 kts | 173° |
| 2026-04-29 00:30 | 38.82708 | -90.49955 | 2986 ft | 182 kts | 157° |
| 2026-04-29 00:30 | 38.81960 | -90.49434 | 2855 ft | 181 kts | 144° |
| 2026-04-29 00:30 | 38.80868 | -90.47857 | 2568 ft | 179 kts | 129° |
| 2026-04-29 00:30 | 38.80107 | -90.46593 | 2329 ft | 178 kts | 124° |
| 2026-04-29 00:31 | 38.79655 | -90.45730 | 2171 ft | 174 kts | 122° |
| 2026-04-29 00:31 | 38.79012 | -90.44431 | 1981 ft | 172 kts | 121° |
| 2026-04-29 00:31 | 38.78364 | -90.43113 | 1703 ft | 175 kts | 120° |
| 2026-04-29 00:31 | 38.77713 | -90.41787 | 1467 ft | 176 kts | 120° |
| 2026-04-29 00:32 | 38.77061 | -90.40459 | 1224 ft | 176 kts | 120° |
| 2026-04-29 00:32 | 38.76405 | -90.39121 | 1008 ft | 179 kts | 119° |
| 2026-04-29 00:32 | 38.75728 | -90.37751 | 812 ft | 183 kts | 119° |
| 2026-04-29 00:32 | 38.75065 | -90.36403 | 629 ft | 171 kts | 118° |
| 2026-04-29 00:33 | 38.74556 | -90.35366 | 626 ft | 84 kts | 122° |
| 2026-04-29 00:33 | 38.74316 | -90.34978 | 628 ft | 37 kts | 148° |
| 2026-04-29 00:33 | 38.74166 | -90.34875 | 619 ft | 18 kts | 152° |
| 2026-04-29 00:33 | 38.74052 | -90.34857 | 622 ft | 18 kts | 212° |
| 2026-04-29 00:34 | 38.73950 | -90.34940 | 616 ft | 17 kts | 212° |
| 2026-04-29 00:34 | 38.73851 | -90.35020 | 620 ft | 16 kts | 211° |
| 2026-04-29 00:34 | 38.73791 | -90.35093 | 621 ft | 12 kts | 259° |
| 2026-04-29 00:34 | 38.73825 | -90.35184 | 620 ft | 11 kts | 300° |
| 2026-04-29 00:35 | 38.73827 | -90.35277 | 618 ft | 11 kts | 236° |
| 2026-04-29 00:35 | 38.73793 | -90.35362 | 627 ft | 11 kts | 234° |
| 2026-04-29 00:35 | 38.73752 | -90.35410 | 619 ft | 7 kts | 220° |
| 2026-04-29 00:35 | 38.73747 | -90.35415 | 618 ft | 1 kts | 220° |
| 2026-04-29 00:36 | 38.73733 | -90.35431 | 616 ft | 0 kts | 220° |